createdAt,value
2022-09-06T00:02:47.391Z,16.91
2022-09-06T00:07:49.144Z,16.76
2022-09-06T00:12:50.817Z,16.67
2022-09-06T00:17:52.356Z,16.59
2022-09-06T00:23:05.754Z,16.67
2022-09-06T00:28:07.523Z,16.62
2022-09-06T00:33:09.211Z,16.60
2022-09-06T00:38:10.807Z,16.67
2022-09-06T00:43:12.473Z,16.52
2022-09-06T00:48:15.871Z,16.55
2022-09-06T00:53:18.875Z,16.45
2022-09-06T00:58:21.310Z,16.56
2022-09-06T01:03:25.202Z,16.55
2022-09-06T01:08:52.776Z,16.49
2022-09-06T01:14:08.052Z,16.38
2022-09-06T01:19:47.135Z,16.33
2022-09-06T01:25:22.431Z,16.20
2022-09-06T01:30:25.433Z,16.23
2022-09-06T01:35:30.798Z,16.12
2022-09-06T01:40:36.564Z,15.96
2022-09-06T01:46:07.614Z,15.87
2022-09-06T01:51:17.311Z,15.77
2022-09-06T01:56:31.705Z,15.95
2022-09-06T02:01:45.661Z,15.90
2022-09-06T02:06:52.838Z,15.99
2022-09-06T02:12:04.264Z,16.04
2022-09-06T02:17:08.856Z,15.88
2022-09-06T02:22:15.796Z,15.83
2022-09-06T02:27:17.541Z,15.68
2022-09-06T02:32:22.731Z,15.61
2022-09-06T02:37:28.213Z,15.86
2022-09-06T02:42:30.037Z,15.85
2022-09-06T02:47:31.812Z,15.91
2022-09-06T02:52:33.899Z,15.66
2022-09-06T02:57:35.989Z,15.53
2022-09-06T03:02:38.346Z,15.63
2022-09-06T03:07:40.245Z,15.48
2022-09-06T03:12:46.890Z,15.37
2022-09-06T03:17:49.304Z,15.34
2022-09-06T03:22:51.789Z,15.32
2022-09-06T03:27:53.406Z,15.32
2022-09-06T03:32:55.020Z,15.27
2022-09-06T03:37:56.838Z,15.25
2022-09-06T03:42:58.439Z,15.22
2022-09-06T03:48:00.069Z,15.16
2022-09-06T03:53:01.681Z,15.25
2022-09-06T03:58:03.277Z,15.35
2022-09-06T04:03:04.857Z,15.22
2022-09-06T04:08:06.826Z,15.13
2022-09-06T04:13:08.457Z,15.15
2022-09-06T04:18:10.138Z,15.08
2022-09-06T04:23:11.725Z,15.14
2022-09-06T04:28:13.592Z,15.29
2022-09-06T04:33:15.267Z,15.72
2022-09-06T04:38:17.066Z,15.70
2022-09-06T04:43:18.754Z,15.52
2022-09-06T04:48:20.347Z,15.52
2022-09-06T04:53:21.924Z,15.57
2022-09-06T04:58:23.765Z,15.64
2022-09-06T05:03:25.458Z,15.97
2022-09-06T05:08:27.205Z,15.94
2022-09-06T05:13:29.196Z,16.17
2022-09-06T05:18:31.209Z,16.31
2022-09-06T05:23:33.070Z,16.59
2022-09-06T05:28:35.033Z,16.73
2022-09-06T05:33:37.388Z,16.80
2022-09-06T05:38:38.987Z,16.94
2022-09-06T05:43:40.565Z,17.10
2022-09-06T05:48:42.678Z,17.26
2022-09-06T05:53:45.788Z,17.17
2022-09-06T05:58:47.351Z,17.28
2022-09-06T06:04:03.782Z,17.62
2022-09-06T06:09:05.304Z,17.72
2022-09-06T06:14:07.149Z,17.54
2022-09-06T06:19:08.744Z,17.66
2022-09-06T06:24:10.340Z,17.76
2022-09-06T06:29:11.890Z,17.70
2022-09-06T06:34:13.672Z,17.87
2022-09-06T06:39:15.431Z,17.98
2022-09-06T06:44:17.052Z,17.92
2022-09-06T06:49:18.688Z,18.39
2022-09-06T06:54:20.344Z,18.59
2022-09-06T06:59:21.911Z,18.57
2022-09-06T07:04:23.761Z,18.74
2022-09-06T07:09:26.083Z,18.78
2022-09-06T07:14:27.868Z,18.51
2022-09-06T07:24:51.676Z,19.14
2022-09-06T07:29:53.274Z,19.42
2022-09-06T07:34:54.863Z,19.37
2022-09-06T07:39:56.554Z,19.47
2022-09-06T07:44:58.239Z,19.49
2022-09-06T07:55:21.366Z,19.46
2022-09-06T08:00:23.004Z,19.45
2022-09-06T08:10:50.602Z,20.03
2022-09-06T08:16:00.655Z,20.26
2022-09-06T08:21:16.414Z,20.40
2022-09-06T08:26:21.050Z,20.41
2022-09-06T08:31:22.764Z,20.75
2022-09-06T08:36:30.078Z,21.00
2022-09-06T08:41:56.611Z,21.03
2022-09-06T08:47:11.871Z,21.30
2022-09-06T08:52:25.907Z,21.50
2022-09-06T08:57:35.016Z,21.70
2022-09-06T09:02:51.744Z,22.08
2022-09-06T09:08:00.268Z,22.39
2022-09-06T09:13:07.541Z,22.58
2022-09-06T09:18:09.139Z,22.93
2022-09-06T09:23:10.739Z,23.20
2022-09-06T09:28:24.794Z,23.15
2022-09-06T09:33:33.900Z,23.08
2022-09-06T09:38:44.451Z,22.85
2022-09-06T09:44:01.087Z,22.72
2022-09-06T09:49:29.784Z,23.20
2022-09-06T09:54:35.399Z,23.47
2022-09-06T09:59:37.257Z,23.61
2022-09-06T10:04:46.803Z,23.72
2022-09-06T10:09:57.035Z,23.94
2022-09-06T10:15:04.903Z,23.94
2022-09-06T10:20:11.478Z,23.97
2022-09-06T10:25:49.641Z,23.93
2022-09-06T10:31:05.504Z,23.82
2022-09-06T10:36:07.770Z,24.38
2022-09-06T10:41:46.186Z,24.35
2022-09-06T10:46:55.532Z,24.03
2022-09-06T10:52:02.190Z,24.40
2022-09-06T11:08:47.078Z,25.77
2022-09-06T11:13:49.253Z,25.95
2022-09-06T11:19:02.049Z,24.97
2022-09-06T11:24:22.304Z,24.89
2022-09-06T11:29:27.097Z,25.73
2022-09-06T11:34:32.667Z,25.98
2022-09-06T11:44:59.668Z,26.32
2022-09-06T11:50:21.347Z,26.55
2022-09-06T11:55:39.111Z,25.89
2022-09-06T12:00:40.707Z,25.79
2022-09-06T12:06:15.934Z,26.30
2022-09-06T12:11:30.331Z,26.55
2022-09-06T12:16:57.093Z,26.88
2022-09-06T12:21:58.684Z,26.48
2022-09-06T12:27:12.715Z,26.48
2022-09-06T12:32:20.546Z,26.63
2022-09-06T12:37:50.331Z,26.37
2022-09-06T12:42:53.000Z,26.05
2022-09-06T12:48:09.966Z,25.77
2022-09-06T12:53:25.508Z,25.84
2022-09-06T12:58:30.419Z,25.73
2022-09-06T13:03:43.800Z,25.55
2022-09-06T13:08:57.352Z,25.53
2022-09-06T13:13:59.358Z,25.20
2022-09-06T13:19:15.565Z,24.99
2022-09-06T13:24:21.399Z,24.75
2022-09-06T13:29:24.098Z,24.27
2022-09-06T13:34:29.086Z,22.65
2022-09-06T13:39:39.422Z,21.00
2022-09-06T13:44:41.144Z,20.09
2022-09-06T13:49:42.853Z,19.26
2022-09-06T13:54:44.718Z,18.94
2022-09-06T13:59:46.291Z,18.74
2022-09-06T14:04:48.498Z,18.79
2022-09-06T14:09:51.340Z,18.74
2022-09-06T14:14:56.211Z,18.90
2022-09-06T14:19:58.408Z,19.02
2022-09-06T14:25:00.733Z,19.13
2022-09-06T14:30:03.078Z,19.24
2022-09-06T14:35:06.289Z,19.24
2022-09-06T14:40:10.768Z,19.19
2022-09-06T14:45:12.492Z,19.37
2022-09-06T14:50:14.391Z,19.46
2022-09-06T14:55:16.358Z,19.52
2022-09-06T15:00:19.034Z,19.41
2022-09-06T15:05:20.755Z,19.39
2022-09-06T15:10:22.558Z,19.34
2022-09-06T15:15:24.798Z,19.31
2022-09-06T15:20:26.670Z,19.48
2022-09-06T15:25:28.476Z,19.44
2022-09-06T15:30:30.251Z,19.30
2022-09-06T15:35:33.562Z,19.08
2022-09-06T15:40:35.742Z,19.21
2022-09-06T15:45:49.430Z,19.09
2022-09-06T15:50:52.036Z,19.32
2022-09-06T15:55:59.203Z,19.16
2022-09-06T16:01:07.072Z,19.08
2022-09-06T16:06:28.337Z,19.31
2022-09-06T16:11:33.071Z,19.38
2022-09-06T16:16:36.092Z,19.31
2022-09-06T16:21:40.260Z,19.40
2022-09-06T16:26:46.453Z,19.39
2022-09-06T16:31:48.804Z,19.35
2022-09-06T16:36:50.712Z,19.34
2022-09-06T16:41:52.505Z,19.40
2022-09-06T16:46:57.179Z,19.07
2022-09-06T16:51:59.063Z,18.98
2022-09-06T16:57:01.761Z,19.00
2022-09-06T17:02:03.792Z,19.24
2022-09-06T17:07:05.695Z,19.21
2022-09-06T17:12:07.863Z,19.44
2022-09-06T17:17:10.110Z,19.15
2022-09-06T17:22:12.843Z,18.99
2022-09-06T17:27:14.607Z,18.92
2022-09-06T17:32:16.434Z,19.03
2022-09-06T17:37:18.249Z,18.94
2022-09-06T17:42:20.118Z,18.72
2022-09-06T17:47:21.866Z,18.61
2022-09-06T17:52:23.752Z,18.71
2022-09-06T17:57:25.626Z,18.70
2022-09-06T18:02:27.904Z,18.53
2022-09-06T18:07:29.953Z,18.45
2022-09-06T18:12:31.977Z,18.45
2022-09-06T18:17:34.207Z,18.43
2022-09-06T18:22:38.162Z,18.39
2022-09-06T18:27:40.334Z,18.54
2022-09-06T18:32:42.395Z,18.41
2022-09-06T18:37:44.175Z,18.20
2022-09-06T18:42:45.800Z,18.09
2022-09-06T18:47:48.161Z,18.18
2022-09-06T18:52:50.183Z,18.07
2022-09-06T18:57:51.897Z,18.12
2022-09-06T19:02:53.970Z,18.19
2022-09-06T19:07:55.896Z,18.10
2022-09-06T19:12:57.567Z,17.84
2022-09-06T19:18:03.079Z,17.63
2022-09-06T19:23:04.713Z,17.56
2022-09-06T19:28:06.366Z,17.57
2022-09-06T19:33:08.716Z,17.57
2022-09-06T19:38:10.484Z,17.46
2022-09-06T19:43:12.199Z,17.38
2022-09-06T19:48:13.798Z,17.28
2022-09-06T19:53:15.489Z,17.22
2022-09-06T19:58:17.256Z,17.08
2022-09-06T20:03:19.741Z,16.96
2022-09-06T20:08:21.354Z,17.24
2022-09-06T20:13:23.226Z,17.36
2022-09-06T20:18:25.773Z,17.14
2022-09-06T20:23:29.005Z,17.06
2022-09-06T20:28:31.151Z,17.44
2022-09-06T20:33:33.903Z,17.20
2022-09-06T20:38:39.105Z,17.14
2022-09-06T20:43:41.730Z,16.94
2022-09-06T20:48:45.325Z,16.96
2022-09-06T20:53:53.706Z,16.88
2022-09-06T20:58:59.461Z,16.76
2022-09-06T21:04:02.905Z,16.72
2022-09-06T21:09:06.383Z,16.50
2022-09-06T21:14:09.430Z,16.62
2022-09-06T21:19:12.023Z,16.91
2022-09-06T21:24:13.848Z,16.54
2022-09-06T21:29:15.592Z,16.35
2022-09-06T21:34:17.510Z,16.31
2022-09-06T21:39:19.191Z,16.21
2022-09-06T21:44:21.009Z,16.12
2022-09-06T21:49:22.735Z,16.11
2022-09-06T21:54:24.378Z,16.11
2022-09-06T21:59:26.075Z,16.28
2022-09-06T22:04:27.899Z,16.14
2022-09-06T22:09:29.561Z,16.04
2022-09-06T22:14:31.195Z,16.18
2022-09-06T22:19:32.861Z,16.09
2022-09-06T22:24:34.711Z,16.08
2022-09-06T22:29:36.328Z,16.16
2022-09-06T22:34:37.944Z,16.19
2022-09-06T22:39:39.556Z,15.94
2022-09-06T22:44:41.175Z,15.83
2022-09-06T22:49:42.816Z,15.77
2022-09-06T22:54:44.379Z,15.80
2022-09-06T22:59:46.007Z,15.80
2022-09-06T23:04:47.638Z,15.71
2022-09-06T23:09:49.397Z,15.68
2022-09-06T23:14:51.009Z,15.81
2022-09-06T23:19:52.570Z,15.82
2022-09-06T23:24:54.231Z,15.83
2022-09-06T23:29:55.914Z,15.63
2022-09-06T23:34:57.511Z,15.53
2022-09-06T23:39:59.143Z,15.44
2022-09-06T23:45:00.785Z,15.53
2022-09-06T23:50:03.144Z,15.58
2022-09-06T23:55:05.109Z,15.40
